Time;durP1;ratioP1;P1;durP2;ratioP2;P2;SDS_P1;SDS_P2;PMS_P1;PMS_P2;Temp;Humidity;BMP_temperature;BMP_pressure;BME280_temperature;BME280_humidity;BME280_pressure;Samples;Min_cycle;Max_cycle;Signal;HPM_P1;HPM_P2
2023/10/18 00:02:57;;;;;;;17.90;11.10;;;;;;;-143.90;100.00;65065.84;6156418;23;20017;-88
2023/10/18 00:08:47;;;;;;;15.13;10.05;;;;;;;-143.90;100.00;65065.84;6184816;23;20112;-84
2023/10/18 00:11:48;;;;;;;15.43;11.18;;;;;;;-143.90;100.00;65065.84;6183022;23;20456;-84
2023/10/18 00:14:28;;;;;;;16.13;10.65;;;;;;;-143.90;100.00;65065.84;6182891;23;20344;-84
2023/10/18 00:17:26;;;;;;;16.92;11.27;;;;;;;-143.90;100.00;65065.84;6158319;23;20430;-84
2023/10/18 00:26:35;;;;;;;15.75;10.27;;;;;;;-143.90;100.00;65065.84;6095034;23;20098;-86
2023/10/18 00:29:06;;;;;;;14.63;10.30;;;;;;;-143.90;100.00;65065.84;6093634;23;20566;-87
2023/10/18 00:31:59;;;;;;;14.25;10.55;;;;;;;-143.90;100.00;65065.84;6094147;23;20014;-83
2023/10/18 00:34:47;;;;;;;13.60;8.73;;;;;;;-143.90;100.00;65065.84;6036662;23;20519;-85
2023/10/18 00:37:13;;;;;;;12.57;9.82;;;;;;;-143.90;100.00;65065.84;6134971;23;20244;-88
2023/10/18 00:39:41;;;;;;;15.32;10.07;;;;;;;-143.90;100.00;65065.84;6183562;23;20092;-84
2023/10/18 00:42:28;;;;;;;17.70;9.80;;;;;;;-143.90;100.00;65065.84;6183607;23;20001;-88
2023/10/18 00:45:08;;;;;;;14.65;10.13;;;;;;;-143.90;100.00;65065.84;6158360;23;20016;-85
2023/10/18 00:48:07;;;;;;;14.43;9.85;;;;;;;-143.90;100.00;65065.84;6184562;23;20005;-85
2023/10/18 00:50:46;;;;;;;15.23;10.32;;;;;;;-143.90;100.00;65065.84;6182708;23;20009;-88
2023/10/18 00:53:51;;;;;;;14.35;9.88;;;;;;;-143.90;100.00;65065.84;6158622;23;20009;-83
2023/10/18 00:59:43;;;;;;;14.70;10.20;;;;;;;-143.90;100.00;65065.84;6183946;23;20016;-85
2023/10/18 01:02:14;;;;;;;14.35;9.90;;;;;;;-143.90;100.00;65065.84;6184573;23;20012;-86
2023/10/18 01:04:46;;;;;;;16.23;9.32;;;;;;;-143.90;100.00;65065.84;6158703;23;20430;-83
2023/10/18 01:16:58;;;;;;;14.35;10.07;;;;;;;-143.90;100.00;65065.84;6184612;23;20016;-87
2023/10/18 01:19:24;;;;;;;16.20;10.02;;;;;;;-143.90;100.00;65065.84;6183884;23;20005;-89
2023/10/18 01:21:52;;;;;;;12.98;9.35;;;;;;;-143.90;100.00;65065.84;6184131;23;20011;-87
2023/10/18 01:27:43;;;;;;;15.43;9.55;;;;;;;-143.90;100.00;65065.84;6184420;23;20020;-87
2023/10/18 01:30:23;;;;;;;16.10;9.75;;;;;;;-143.90;100.00;65065.84;6184947;23;20020;-87
2023/10/18 01:32:51;;;;;;;13.60;9.63;;;;;;;-143.90;100.00;65065.84;6184385;23;20210;-88
2023/10/18 01:38:42;;;;;;;14.27;10.68;;;;;;;-143.90;100.00;65065.84;6184389;23;20020;-87
2023/10/18 01:41:09;;;;;;;14.40;9.60;;;;;;;-143.90;100.00;65065.84;6184344;23;20077;-92
2023/10/18 01:43:36;;;;;;;14.48;10.40;;;;;;;-143.90;100.00;65065.84;6184156;23;20426;-86
2023/10/18 01:46:06;;;;;;;15.23;11.77;;;;;;;-143.90;100.00;65065.84;6184174;23;20013;-86
2023/10/18 01:48:31;;;;;;;15.45;10.82;;;;;;;-143.90;100.00;65065.84;6183358;23;20488;-88
2023/10/18 01:50:57;;;;;;;17.10;10.45;;;;;;;-143.90;100.00;65065.84;6184285;23;20008;-88
2023/10/18 01:53:31;;;;;;;15.07;9.77;;;;;;;-143.90;100.00;65065.84;6182724;23;20005;-87
2023/10/18 01:55:57;;;;;;;14.73;11.10;;;;;;;-143.90;100.00;65065.84;6184525;23;20055;-89
2023/10/18 01:58:26;;;;;;;15.27;10.57;;;;;;;-143.90;100.00;65065.84;6184176;23;20076;-88
2023/10/18 02:00:54;;;;;;;17.95;9.82;;;;;;;-143.90;100.00;65065.84;6157965;23;20066;-86
2023/10/18 02:03:19;;;;;;;14.77;9.30;;;;;;;-143.90;100.00;65065.84;6184404;23;20059;-87
2023/10/18 02:05:48;;;;;;;13.23;8.93;;;;;;;-143.90;100.00;65065.84;6184264;23;20040;-87
2023/10/18 02:08:15;;;;;;;13.30;11.13;;;;;;;-143.90;100.00;65065.84;6184134;23;20016;-86
2023/10/18 02:10:44;;;;;;;14.70;10.02;;;;;;;-143.90;100.00;65065.84;6157942;23;20009;-89
2023/10/18 02:13:15;;;;;;;15.88;10.20;;;;;;;-143.90;100.00;65065.84;6184022;23;20009;-86
2023/10/18 02:15:41;;;;;;;14.88;9.77;;;;;;;-143.90;100.00;65065.84;6157813;23;20324;-88
2023/10/18 02:18:27;;;;;;;15.88;9.75;;;;;;;-143.90;100.00;65065.84;6184038;23;20144;-89
2023/10/18 02:20:53;;;;;;;14.95;9.73;;;;;;;-143.90;100.00;65065.84;6157790;23;20012;-86
2023/10/18 02:23:21;;;;;;;13.10;9.45;;;;;;;-143.90;100.00;65065.84;6157731;23;20037;-87
2023/10/18 02:25:47;;;;;;;12.82;9.18;;;;;;;-143.90;100.00;65065.84;6183431;23;20013;-87
2023/10/18 02:28:25;;;;;;;13.80;9.23;;;;;;;-143.90;100.00;65065.84;6182893;23;20009;-88
2023/10/18 02:31:13;;;;;;;15.10;10.35;;;;;;;-143.90;100.00;65065.84;6182461;23;20385;-85
2023/10/18 02:33:42;;;;;;;16.25;10.98;;;;;;;-143.90;100.00;65065.84;6182745;23;20422;-88
2023/10/18 02:36:11;;;;;;;14.68;8.75;;;;;;;-143.90;100.00;65065.84;6157592;23;20004;-88
2023/10/18 02:38:41;;;;;;;13.55;9.00;;;;;;;-143.90;100.00;65065.84;6184030;23;20505;-89
2023/10/18 02:41:19;;;;;;;13.20;9.60;;;;;;;-143.90;100.00;65065.84;6184195;23;20064;-88
2023/10/18 02:43:48;;;;;;;13.10;8.90;;;;;;;-143.90;100.00;65065.84;6182757;23;20434;-86
2023/10/18 02:46:21;;;;;;;15.57;10.30;;;;;;;-143.90;100.00;65065.84;6182953;23;20330;-84
2023/10/18 02:48:50;;;;;;;16.13;10.65;;;;;;;-143.90;100.00;65065.84;6182450;23;20024;-84
2023/10/18 02:51:15;;;;;;;12.55;9.65;;;;;;;-143.90;100.00;65065.84;6184042;23;20012;-85
2023/10/18 02:53:41;;;;;;;15.35;9.45;;;;;;;-143.90;100.00;65065.84;6157640;23;20431;-85
2023/10/18 02:56:09;;;;;;;16.10;10.18;;;;;;;-143.90;100.00;65065.84;6157607;23;20001;-84
2023/10/18 02:58:37;;;;;;;13.68;9.18;;;;;;;-143.90;100.00;65065.84;6182059;23;20009;-83
2023/10/18 03:01:06;;;;;;;12.45;9.48;;;;;;;-143.90;100.00;65065.84;6157322;23;20399;-85
2023/10/18 03:03:32;;;;;;;11.45;8.48;;;;;;;-143.90;100.00;65065.84;6183761;23;20036;-87
2023/10/18 03:06:01;;;;;;;14.68;9.63;;;;;;;-143.90;100.00;65065.84;6183518;23;20005;-87
2023/10/18 03:08:28;;;;;;;13.80;9.50;;;;;;;-143.90;100.00;65065.84;6182243;23;20036;-84
2023/10/18 03:10:53;;;;;;;13.02;8.45;;;;;;;-143.90;100.00;65065.84;6183771;23;20438;-84
2023/10/18 03:13:23;;;;;;;14.50;9.98;;;;;;;-143.90;100.00;65065.84;6183455;23;20001;-86
2023/10/18 03:16:04;;;;;;;13.68;9.05;;;;;;;-143.90;100.00;65065.84;6183905;23;20315;-88
2023/10/18 03:18:30;;;;;;;14.52;10.43;;;;;;;-143.90;100.00;65065.84;6157418;23;20005;-84
2023/10/18 03:20:57;;;;;;;13.43;9.45;;;;;;;-143.90;100.00;65065.84;6183818;23;20020;-84
2023/10/18 03:23:26;;;;;;;13.50;9.43;;;;;;;-143.90;100.00;65065.84;6158231;23;20067;-88
2023/10/18 03:26:01;;;;;;;17.88;9.85;;;;;;;-143.90;100.00;65065.84;6185273;23;20266;-88
2023/10/18 03:28:34;;;;;;;13.45;8.43;;;;;;;-143.90;100.00;65065.84;6184762;23;20001;-87
2023/10/18 03:31:00;;;;;;;;;;;;;;;-143.90;100.00;65065.84;6185363;23;20062;-84
2023/10/18 03:33:28;;;;;;;14.43;10.15;;;;;;;-143.90;100.00;65065.84;6158573;23;20321;-87
2023/10/18 03:36:06;;;;;;;14.43;8.80;;;;;;;-143.90;100.00;65065.84;6184791;23;20526;-86
2023/10/18 03:38:39;;;;;;;14.77;9.75;;;;;;;-143.90;100.00;65065.84;6184867;23;20032;-87
2023/10/18 03:41:07;;;;;;;13.55;9.65;;;;;;;-143.90;100.00;65065.84;6184654;23;20005;-87
2023/10/18 03:43:36;;;;;;;12.90;8.75;;;;;;;-143.90;100.00;65065.84;6183374;23;20005;-89
2023/10/18 03:46:29;;;;;;;9.40;7.78;;;;;;;-143.90;100.00;65065.84;6183165;23;20005;-89
2023/10/18 03:48:54;;;;;;;14.43;10.43;;;;;;;-143.90;100.00;65065.84;6184763;23;20013;-90
2023/10/18 03:51:26;;;;;;;12.00;8.50;;;;;;;-143.90;100.00;65065.84;6184955;23;20005;-89
2023/10/18 03:53:52;;;;;;;13.25;9.95;;;;;;;-143.90;100.00;65065.84;6184635;23;20013;-86
2023/10/18 03:56:19;;;;;;;12.82;10.15;;;;;;;-143.90;100.00;65065.84;6184726;23;20115;-88
2023/10/18 03:58:49;;;;;;;14.13;8.95;;;;;;;-143.90;100.00;65065.84;6184701;23;20108;-87
2023/10/18 04:01:21;;;;;;;11.73;9.00;;;;;;;-143.90;100.00;65065.84;6183324;23;20131;-86
2023/10/18 04:03:49;;;;;;;12.32;8.90;;;;;;;-143.90;100.00;65065.84;6184776;23;20079;-87
2023/10/18 04:06:28;;;;;;;12.50;9.95;;;;;;;-143.90;100.00;65065.84;6184565;23;20012;-85
2023/10/18 04:08:58;;;;;;;11.40;7.85;;;;;;;-143.90;100.00;65065.84;6184847;23;20015;-86
2023/10/18 04:11:26;;;;;;;14.73;9.20;;;;;;;-143.90;100.00;65065.84;6182895;23;20088;-85
2023/10/18 04:13:51;;;;;;;12.73;9.38;;;;;;;-143.90;100.00;65065.84;6158097;23;20346;-83
2023/10/18 04:16:18;;;;;;;15.90;9.23;;;;;;;-143.90;100.00;65065.84;6184368;23;20001;-86
2023/10/18 04:18:43;;;;;;;11.95;8.68;;;;;;;-143.90;100.00;65065.84;6184568;23;20009;-86
2023/10/18 04:21:15;;;;;;;13.25;9.02;;;;;;;-143.90;100.00;65065.84;6182894;23;20015;-85
2023/10/18 04:23:46;;;;;;;18.35;10.35;;;;;;;-143.90;100.00;65065.84;6183052;23;20009;-84
2023/10/18 04:26:18;;;;;;;10.98;8.65;;;;;;;-143.90;100.00;65065.84;6182884;23;20013;-85
2023/10/18 04:28:45;;;;;;;11.68;8.73;;;;;;;-143.90;100.00;65065.84;6184747;23;20004;-82
2023/10/18 04:31:14;;;;;;;10.77;8.02;;;;;;;-143.90;100.00;65065.84;6184604;23;20330;-86
2023/10/18 04:33:49;;;;;;;14.48;9.93;;;;;;;-143.90;100.00;65065.84;6184397;23;20012;-84
2023/10/18 04:36:15;;;;;;;15.18;8.93;;;;;;;-143.90;100.00;65065.84;6183040;23;20009;-85
2023/10/18 04:38:44;;;;;;;10.93;8.55;;;;;;;-143.90;100.00;65065.84;6184443;23;20131;-86
2023/10/18 04:44:07;;;;;;;13.65;9.35;;;;;;;-143.90;100.00;65065.84;6185044;23;20020;-85
2023/10/18 04:46:35;;;;;;;12.88;8.35;;;;;;;-143.90;100.00;65065.84;6157922;23;20468;-84
2023/10/18 04:49:15;;;;;;;13.63;9.55;;;;;;;-143.90;100.00;65065.84;6184447;23;20384;-87
2023/10/18 04:54:09;;;;;;;12.43;8.52;;;;;;;-143.90;100.00;65065.84;6184954;23;20316;-89
2023/10/18 04:56:37;;;;;;;15.57;10.07;;;;;;;-143.90;100.00;65065.84;6184283;23;20036;-86
2023/10/18 04:59:09;;;;;;;13.52;8.32;;;;;;;-143.90;100.00;65065.84;6184180;23;20426;-84
2023/10/18 05:01:41;;;;;;;12.68;9.82;;;;;;;-143.90;100.00;65065.84;6184502;23;20115;-81
2023/10/18 05:04:20;;;;;;;14.30;9.07;;;;;;;-143.90;100.00;65065.84;6184475;23;20001;-85
2023/10/18 05:06:54;;;;;;;12.15;8.35;;;;;;;-143.90;100.00;65065.84;6184482;23;20048;-84
2023/10/18 05:09:59;;;;;;;15.60;10.40;;;;;;;-143.90;100.00;65065.84;6182579;23;20005;-85
2023/10/18 05:12:27;;;;;;;12.52;9.18;;;;;;;-143.90;100.00;65065.84;6181309;23;20009;-86
2023/10/18 05:15:08;;;;;;;15.90;9.38;;;;;;;-143.90;100.00;65065.84;6158190;23;20325;-85
2023/10/18 05:17:39;;;;;;;12.98;10.02;;;;;;;-143.90;100.00;65065.84;6184016;23;20005;-82
2023/10/18 05:22:44;;;;;;;13.27;8.50;;;;;;;-143.90;100.00;65065.84;6191663;23;20084;-83
2023/10/18 05:25:22;;;;;;;12.88;9.20;;;;;;;-143.90;100.00;65065.84;6184249;23;20016;-86
2023/10/18 05:28:08;;;;;;;13.27;8.63;;;;;;;-143.90;100.00;65065.84;6182874;23;20017;-88
2023/10/18 05:44:01;;;;;;;15.52;9.05;;;;;;;-143.90;100.00;65065.84;6184155;23;20521;-87
2023/10/18 05:46:27;;;;;;;13.68;8.95;;;;;;;-143.90;100.00;65065.84;6181888;23;20008;-89
2023/10/18 05:48:55;;;;;;;14.80;8.55;;;;;;;-143.90;100.00;65065.84;6184116;23;20009;-85
2023/10/18 05:53:59;;;;;;;10.77;8.18;;;;;;;-143.90;100.00;65065.84;6184479;23;20020;-85
2023/10/18 05:56:34;;;;;;;11.05;8.32;;;;;;;-143.90;100.00;65065.84;6182789;23;20033;-87
2023/10/18 05:59:27;;;;;;;13.43;9.98;;;;;;;-143.90;100.00;65065.84;6184818;23;20100;-87
2023/10/18 06:02:09;;;;;;;10.77;8.43;;;;;;;-143.90;100.00;65065.84;6184537;23;20005;-86
2023/10/18 06:04:42;;;;;;;15.35;8.63;;;;;;;-143.90;100.00;65065.84;6184278;23;20005;-90
2023/10/18 06:07:12;;;;;;;11.55;8.55;;;;;;;-143.90;100.00;65065.84;6182453;23;20446;-88
2023/10/18 06:09:46;;;;;;;11.85;8.55;;;;;;;-143.90;100.00;65065.84;6182902;23;20088;-88
2023/10/18 06:12:14;;;;;;;11.18;8.05;;;;;;;-143.90;100.00;65065.84;6184193;23;20015;-86
2023/10/18 06:14:41;;;;;;;13.05;8.40;;;;;;;-143.90;100.00;65065.84;6184011;23;20005;-85
2023/10/18 06:17:19;;;;;;;11.95;8.15;;;;;;;-143.90;100.00;65065.84;6157560;23;20036;-88
2023/10/18 06:19:50;;;;;;;11.90;8.35;;;;;;;-143.90;100.00;65065.84;6184045;23;20005;-84
2023/10/18 06:22:27;;;;;;;9.98;7.78;;;;;;;-143.90;100.00;65065.84;6182280;23;20040;-91
2023/10/18 06:24:55;;;;;;;14.48;8.52;;;;;;;-143.90;100.00;65065.84;6183809;23;20079;-83
2023/10/18 06:27:20;;;;;;;12.65;8.02;;;;;;;-143.90;100.00;65065.84;6183565;23;20004;-89
2023/10/18 06:29:49;;;;;;;11.90;8.10;;;;;;;-143.90;100.00;65065.84;6183779;23;20382;-87
2023/10/18 06:32:15;;;;;;;13.05;8.63;;;;;;;-143.90;100.00;65065.84;6184829;23;20009;-87
2023/10/18 06:34:43;;;;;;;12.23;8.05;;;;;;;-143.90;100.00;65065.84;6158232;23;20032;-86
2023/10/18 06:37:22;;;;;;;10.50;7.35;;;;;;;-143.90;100.00;65065.84;6184747;23;20020;-85
2023/10/18 06:39:51;;;;;;;10.85;7.78;;;;;;;-143.90;100.00;65065.84;6184512;23;20732;-87
2023/10/18 06:42:17;;;;;;;15.52;7.95;;;;;;;-143.90;100.00;65065.84;6182875;23;20087;-83
2023/10/18 06:44:43;;;;;;;12.07;8.25;;;;;;;-143.90;100.00;65065.84;6184431;23;20005;-88
2023/10/18 06:47:13;;;;;;;9.60;7.13;;;;;;;-143.90;100.00;65065.84;6184401;23;20012;-87
2023/10/18 06:49:42;;;;;;;10.07;6.90;;;;;;;-143.90;100.00;65065.84;6184430;23;20079;-88
2023/10/18 06:52:08;;;;;;;13.80;7.13;;;;;;;-143.90;100.00;65065.84;6182711;23;20015;-86
2023/10/18 06:54:38;;;;;;;9.88;7.55;;;;;;;-143.90;100.00;65065.84;6184520;23;20032;-87
2023/10/18 06:57:37;;;;;;;10.77;7.75;;;;;;;-143.90;100.00;65065.84;6183017;23;20009;-86
2023/10/18 06:59:56;;;;;;;10.68;6.85;;;;;;;-143.90;100.00;65065.84;6180209;23;20063;-83
2023/10/18 07:02:27;;;;;;;9.65;6.65;;;;;;;-143.90;100.00;65065.84;6184172;23;20013;-87
2023/10/18 07:04:56;;;;;;;12.05;7.70;;;;;;;-143.90;100.00;65065.84;6185882;23;20080;-84
2023/10/18 07:07:23;;;;;;;13.50;7.57;;;;;;;-143.90;100.00;65065.84;6185680;23;20005;-83
2023/10/18 07:09:56;;;;;;;10.45;6.40;;;;;;;-143.90;100.00;65065.84;6185473;23;20418;-85
2023/10/18 07:12:28;;;;;;;12.48;6.53;;;;;;;-143.90;100.00;65065.84;6185781;23;20201;-86
2023/10/18 07:14:57;;;;;;;13.50;7.75;;;;;;;-143.90;100.00;65065.84;6184112;23;20005;-87
2023/10/18 07:17:24;;;;;;;9.85;6.38;;;;;;;-143.90;100.00;65065.84;6159254;23;20012;-84
2023/10/18 07:19:55;;;;;;;7.78;6.55;;;;;;;-143.90;100.00;65065.84;6185212;23;20499;-85
2023/10/18 07:22:27;;;;;;;12.32;8.13;;;;;;;-143.90;100.00;65065.84;6185476;23;20005;-85
2023/10/18 07:24:59;;;;;;;9.70;7.20;;;;;;;-143.90;100.00;65065.84;6183912;23;20013;-84
2023/10/18 07:27:29;;;;;;;10.45;7.85;;;;;;;-143.90;100.00;65065.84;6159070;23;20031;-85
2023/10/18 07:29:58;;;;;;;12.52;7.13;;;;;;;-143.90;100.00;65065.84;6183903;23;20059;-85
2023/10/18 07:32:28;;;;;;;10.00;6.38;;;;;;;-143.90;100.00;65065.84;6185744;23;20005;-85
2023/10/18 07:34:56;;;;;;;8.93;7.28;;;;;;;-143.90;100.00;65065.84;6185593;23;20425;-88
2023/10/18 07:37:41;;;;;;;9.23;6.43;;;;;;;-143.90;100.00;65065.84;6184717;23;20020;-89
2023/10/18 07:40:11;;;;;;;11.27;7.55;;;;;;;-143.90;100.00;65065.84;6186454;23;20334;-92
2023/10/18 07:42:41;;;;;;;10.15;7.60;;;;;;;-143.90;100.00;65065.84;6185766;23;20005;-87
2023/10/18 07:45:08;;;;;;;12.48;7.63;;;;;;;-143.90;100.00;65065.84;6186004;23;20484;-84
2023/10/18 07:47:37;;;;;;;11.27;7.35;;;;;;;-143.90;100.00;65065.84;6185046;23;20013;-78
2023/10/18 07:50:25;;;;;;;7.72;5.93;;;;;;;-143.90;100.00;65065.84;6185379;23;20314;-82
2023/10/18 07:52:53;;;;;;;8.95;5.88;;;;;;;-143.90;100.00;65065.84;6185130;23;20037;-80
2023/10/18 07:55:27;;;;;;;10.43;7.43;;;;;;;-143.90;100.00;65065.84;6158758;23;20016;-80
2023/10/18 07:57:54;;;;;;;8.82;6.63;;;;;;;-143.90;100.00;65065.84;6159484;23;20346;-81
2023/10/18 08:00:26;;;;;;;12.13;6.88;;;;;;;-143.90;100.00;65065.84;6185188;23;20068;-79
2023/10/18 08:02:52;;;;;;;9.95;5.93;;;;;;;-143.90;100.00;65065.84;6185697;23;20440;-79
2023/10/18 08:05:30;;;;;;;12.90;7.63;;;;;;;-143.90;100.00;65065.84;6183608;23;20040;-76
2023/10/18 08:07:57;;;;;;;11.95;7.57;;;;;;;-143.90;100.00;65065.84;6183195;23;20017;-80
2023/10/18 08:10:23;;;;;;;11.35;7.13;;;;;;;-143.90;100.00;65065.84;6183705;23;20015;-77
2023/10/18 08:13:10;;;;;;;10.32;7.18;;;;;;;-143.90;100.00;65065.84;6183398;23;20009;-76
2023/10/18 08:15:36;;;;;;;8.40;6.28;;;;;;;-143.90;100.00;65065.84;6185076;23;20006;-77
2023/10/18 08:18:17;;;;;;;10.38;7.25;;;;;;;-143.90;100.00;65065.84;6184778;23;20032;-77
2023/10/18 08:23:34;;;;;;;11.02;7.68;;;;;;;-143.90;100.00;65065.84;6190229;23;20378;-75
2023/10/18 08:26:05;;;;;;;9.52;6.72;;;;;;;-143.90;100.00;65065.84;6185350;23;20005;-78
2023/10/18 08:28:46;;;;;;;10.57;7.28;;;;;;;-143.90;100.00;65065.84;6183351;23;20040;-76
2023/10/18 08:31:26;;;;;;;9.35;6.63;;;;;;;-143.90;100.00;65065.84;6182727;23;20008;-78
2023/10/18 08:33:54;;;;;;;10.60;6.15;;;;;;;-143.90;100.00;65065.84;6184631;23;20311;-76
2023/10/18 08:36:29;;;;;;;10.68;7.68;;;;;;;-143.90;100.00;65065.84;6158159;23;20033;-78
2023/10/18 08:38:57;;;;;;;8.30;7.25;;;;;;;-143.90;100.00;65065.84;6158934;23;20390;-78
2023/10/18 08:41:33;;;;;;;10.88;7.93;;;;;;;-143.90;100.00;65065.84;6158077;23;20089;-76
2023/10/18 08:44:16;;;;;;;11.15;8.27;;;;;;;-143.90;100.00;65065.84;6182768;23;20005;-79
2023/10/18 08:46:54;;;;;;;14.50;9.27;;;;;;;-143.90;100.00;65065.84;6184152;23;20005;-79
2023/10/18 08:49:23;;;;;;;13.32;8.10;;;;;;;-143.90;100.00;65065.84;6184791;23;20426;-79
2023/10/18 08:52:11;;;;;;;11.75;7.50;;;;;;;-143.90;100.00;65065.84;6184384;23;20032;-77
2023/10/18 08:54:39;;;;;;;10.63;7.85;;;;;;;-143.90;100.00;65065.84;6183479;23;20341;-80
2023/10/18 08:57:32;;;;;;;12.07;8.27;;;;;;;-143.90;100.00;65065.84;6184906;23;20013;-79
2023/10/18 09:00:19;;;;;;;12.93;7.68;;;;;;;-143.90;100.00;65065.84;6183147;23;20009;-78
2023/10/18 09:02:46;;;;;;;10.40;7.60;;;;;;;-143.90;100.00;65065.84;6182643;23;20009;-78
2023/10/18 09:05:14;;;;;;;16.02;8.32;;;;;;;-143.90;100.00;65065.84;6184712;23;20422;-82
2023/10/18 09:07:43;;;;;;;11.05;7.22;;;;;;;-143.90;100.00;65065.84;6184349;23;20426;-78
2023/10/18 09:10:13;;;;;;;10.35;7.88;;;;;;;-143.90;100.00;65065.84;6184061;23;20012;-79
2023/10/18 09:15:28;;;;;;;8.75;6.75;;;;;;;-143.90;100.00;65065.84;6189169;23;20020;-79
2023/10/18 09:18:05;;;;;;;10.85;7.03;;;;;;;-143.90;100.00;65065.84;6184166;23;20338;-78
2023/10/18 09:20:31;;;;;;;11.70;8.05;;;;;;;-143.90;100.00;65065.84;6183387;23;20084;-78
2023/10/18 09:23:03;;;;;;;11.90;7.25;;;;;;;-143.90;100.00;65065.84;6184112;23;20452;-77
2023/10/18 09:28:35;;;;;;;10.65;8.60;;;;;;;-143.90;100.00;65065.84;6093323;23;20076;-80
2023/10/18 09:31:11;;;;;;;10.75;7.45;;;;;;;-143.90;100.00;65065.84;6092891;23;20481;-78
2023/10/18 09:33:38;;;;;;;13.02;7.55;;;;;;;-143.90;100.00;65065.84;6116728;23;20088;-81
2023/10/18 09:36:38;;;;;;;9.50;6.68;;;;;;;-143.90;100.00;65065.84;6184207;23;20464;-85
2023/10/18 09:38:58;;;;;;;14.10;9.73;;;;;;;-143.90;100.00;65065.84;6183899;23;20016;-80
2023/10/18 09:41:26;;;;;;;11.20;8.17;;;;;;;-143.90;100.00;65065.84;6184144;23;20087;-82
2023/10/18 09:43:52;;;;;;;11.43;7.43;;;;;;;-143.90;100.00;65065.84;6184351;23;20247;-81
2023/10/18 09:46:18;;;;;;;11.60;7.80;;;;;;;-143.90;100.00;65065.84;6184748;23;20334;-83
2023/10/18 09:48:45;;;;;;;10.68;7.15;;;;;;;-143.90;100.00;65065.84;6183143;23;20283;-77
2023/10/18 09:51:21;;;;;;;9.85;8.52;;;;;;;-143.90;100.00;65065.84;6182841;23;20327;-78
2023/10/18 09:53:50;;;;;;;9.55;6.97;;;;;;;-143.90;100.00;65065.84;6184290;23;20307;-81
2023/10/18 09:56:27;;;;;;;11.00;6.90;;;;;;;-143.90;100.00;65065.84;6184805;23;20486;-83
2023/10/18 09:59:07;;;;;;;9.50;7.55;;;;;;;-143.90;100.00;65065.84;6182550;23;20315;-83
2023/10/18 10:04:12;;;;;;;11.48;7.32;;;;;;;-143.90;100.00;65065.84;6191658;23;20036;-80
2023/10/18 10:06:45;;;;;;;10.98;7.90;;;;;;;-143.90;100.00;65065.84;6183998;23;20005;-84
2023/10/18 10:09:12;;;;;;;9.73;7.75;;;;;;;-143.90;100.00;65065.84;6184255;23;20011;-81
2023/10/18 10:11:46;;;;;;;14.05;7.80;;;;;;;-143.90;100.00;65065.84;6183607;23;20016;-81
2023/10/18 10:14:16;;;;;;;8.77;7.03;;;;;;;-143.90;100.00;65065.84;6183868;23;20009;-80
2023/10/18 10:16:45;;;;;;;10.73;8.13;;;;;;;-143.90;100.00;65065.84;6183628;23;20017;-81
2023/10/18 10:19:12;;;;;;;8.93;7.60;;;;;;;-143.90;100.00;65065.84;6183815;23;20377;-80
2023/10/18 10:21:40;;;;;;;8.32;7.10;;;;;;;-143.90;100.00;65065.84;6183834;23;20420;-82
2023/10/18 10:26:53;;;;;;;10.00;7.20;;;;;;;-143.90;100.00;65065.84;6183925;23;20024;-81
2023/10/18 10:31:58;;;;;;;13.32;7.28;;;;;;;-143.90;100.00;65065.84;6187764;23;20071;-81
2023/10/18 10:34:32;;;;;;;9.95;7.45;;;;;;;-143.90;100.00;65065.84;6184186;23;20056;-79
2023/10/18 10:37:18;;;;;;;10.10;7.78;;;;;;;-143.90;100.00;65065.84;6182177;23;20346;-82
2023/10/18 10:39:45;;;;;;;12.15;7.38;;;;;;;-143.90;100.00;65065.84;6184049;23;20465;-82
2023/10/18 10:42:41;;;;;;;10.45;7.18;;;;;;;-143.90;100.00;65065.84;6182201;23;20489;-84
2023/10/18 10:45:11;;;;;;;10.02;7.53;;;;;;;-143.90;100.00;65065.84;6183476;23;20028;-82
2023/10/18 10:47:43;;;;;;;10.30;8.05;;;;;;;-143.90;100.00;65065.84;6158037;23;20449;-86
2023/10/18 10:50:09;;;;;;;9.73;7.03;;;;;;;-143.90;100.00;65065.84;6182257;23;20040;-82
2023/10/18 10:52:40;;;;;;;9.25;7.63;;;;;;;-143.90;100.00;65065.84;6182214;23;20319;-82
2023/10/18 10:55:25;;;;;;;11.48;7.90;;;;;;;-143.90;100.00;65065.84;6157212;23;20023;-81
2023/10/18 10:57:51;;;;;;;8.55;7.15;;;;;;;-143.90;100.00;65065.84;6183429;23;20024;-81
2023/10/18 11:03:29;;;;;;;11.27;8.07;;;;;;;-143.90;100.00;65065.84;6183388;23;20020;-77
2023/10/18 11:05:58;;;;;;;13.40;8.25;;;;;;;-143.90;100.00;65065.84;6183460;23;20005;-77
2023/10/18 11:08:27;;;;;;;10.38;7.90;;;;;;;-143.90;100.00;65065.84;6183516;23;20088;-81
2023/10/18 11:10:54;;;;;;;11.35;8.38;;;;;;;-143.90;100.00;65065.84;6183309;23;20005;-81
2023/10/18 11:13:25;;;;;;;10.77;8.50;;;;;;;-143.90;100.00;65065.84;6181845;23;20430;-79
2023/10/18 11:15:52;;;;;;;12.93;8.95;;;;;;;-143.90;100.00;65065.84;6183205;23;20012;-80
2023/10/18 11:18:20;;;;;;;10.18;7.38;;;;;;;-143.90;100.00;65065.84;6181523;23;20059;-81
2023/10/18 11:21:05;;;;;;;10.60;8.43;;;;;;;-143.90;100.00;65065.84;6183583;23;20398;-81
2023/10/18 11:23:33;;;;;;;10.75;7.82;;;;;;;-143.90;100.00;65065.84;6181914;23;20067;-81
2023/10/18 11:25:59;;;;;;;12.90;7.72;;;;;;;-143.90;100.00;65065.84;6181720;23;20080;-80
2023/10/18 11:28:31;;;;;;;12.02;7.97;;;;;;;-143.90;100.00;65065.84;6182965;23;20013;-81
2023/10/18 11:30:57;;;;;;;11.20;7.97;;;;;;;-143.90;100.00;65065.84;6183219;23;20437;-81
2023/10/18 11:33:46;;;;;;;14.80;7.93;;;;;;;-143.90;100.00;65065.84;6183320;23;20444;-79
2023/10/18 11:36:17;;;;;;;10.60;7.72;;;;;;;-143.90;100.00;65065.84;6156863;23;20456;-81
2023/10/18 11:39:07;;;;;;;7.93;6.55;;;;;;;-143.90;100.00;65065.84;6183250;23;20433;-79
2023/10/18 11:41:34;;;;;;;12.57;7.28;;;;;;;-143.90;100.00;65065.84;6183065;23;20024;-78
2023/10/18 11:44:00;;;;;;;11.45;7.60;;;;;;;-143.90;100.00;65065.84;6182321;23;20055;-79
2023/10/18 11:46:25;;;;;;;12.45;8.23;;;;;;;-143.90;100.00;65065.84;6184403;23;20091;-80
2023/10/18 11:48:54;;;;;;;9.02;7.18;;;;;;;-143.90;100.00;65065.84;6158025;23;20001;-83
2023/10/18 11:51:20;;;;;;;9.80;6.95;;;;;;;-143.90;100.00;65065.84;6182948;23;20434;-81
2023/10/18 11:53:51;;;;;;;10.48;8.43;;;;;;;-143.90;100.00;65065.84;6184500;23;20011;-80
2023/10/18 11:56:17;;;;;;;10.65;7.35;;;;;;;-143.90;100.00;65065.84;6183004;23;20013;-83
2023/10/18 11:59:00;;;;;;;12.57;7.35;;;;;;;-143.90;100.00;65065.84;6182872;23;20016;-78
2023/10/18 12:01:31;;;;;;;9.13;7.63;;;;;;;-143.90;100.00;65065.84;6157932;23;20012;-78
2023/10/18 12:03:58;;;;;;;11.77;7.43;;;;;;;-143.90;100.00;65065.84;6184303;23;20009;-78
2023/10/18 12:06:24;;;;;;;13.43;8.20;;;;;;;-143.90;100.00;65065.84;6184248;23;20438;-78
2023/10/18 12:09:25;;;;;;;8.75;7.03;;;;;;;-143.90;100.00;65065.84;6184431;23;20001;-78
2023/10/18 12:11:34;;;;;;;8.60;6.35;;;;;;;-143.90;100.00;65065.84;6184241;23;20009;-77
2023/10/18 12:14:00;;;;;;;10.85;7.15;;;;;;;-143.90;100.00;65065.84;6184232;23;20032;-76
2023/10/18 12:16:26;;;;;;;13.75;8.73;;;;;;;-143.90;100.00;65065.84;6158001;23;20064;-77
2023/10/18 12:18:52;;;;;;;10.77;7.43;;;;;;;-143.90;100.00;65065.84;6184219;23;20092;-79
2023/10/18 12:21:20;;;;;;;9.20;6.45;;;;;;;-143.90;100.00;65065.84;6184430;23;20001;-76
2023/10/18 12:23:46;;;;;;;11.60;7.40;;;;;;;-143.90;100.00;65065.84;6184551;23;20341;-77
2023/10/18 12:26:11;;;;;;;11.15;7.20;;;;;;;-143.90;100.00;65065.84;6184357;23;20359;-77
2023/10/18 12:28:37;;;;;;;9.38;7.20;;;;;;;-143.90;100.00;65065.84;6184070;23;20020;-79
2023/10/18 12:31:12;;;;;;;9.15;7.60;;;;;;;-143.90;100.00;65065.84;6182766;23;20384;-80
2023/10/18 12:33:40;;;;;;;11.43;7.20;;;;;;;-143.90;100.00;65065.84;6158106;23;20402;-78
2023/10/18 12:36:07;;;;;;;12.63;7.18;;;;;;;-143.90;100.00;65065.84;6184450;23;20009;-78
2023/10/18 12:38:33;;;;;;;8.40;6.68;;;;;;;-143.90;100.00;65065.84;6184211;23;20037;-77